sensor_id;sensor_type;location;lat;lon;timestamp;pressure;altitude;pressure_sealevel;temperature;humidity
71970;BME280;59838;52.152;5.436;2023-03-04T00:01:09;102828.47;;;5.07;83.76
71970;BME280;59838;52.152;5.436;2023-03-04T00:03:35;102830.13;;;5.08;83.85
71970;BME280;59838;52.152;5.436;2023-03-04T00:06:02;102830.22;;;5.07;83.94
71970;BME280;59838;52.152;5.436;2023-03-04T00:08:29;102832.69;;;5.08;84.13
71970;BME280;59838;52.152;5.436;2023-03-04T00:10:55;102826.72;;;5.08;83.76
71970;BME280;59838;52.152;5.436;2023-03-04T00:13:22;102834.44;;;5.08;84.00
71970;BME280;59838;52.152;5.436;2023-03-04T00:15:49;102832.78;;;5.07;83.98
71970;BME280;59838;52.152;5.436;2023-03-04T00:18:16;102831.06;;;5.07;84.19
71970;BME280;59838;52.152;5.436;2023-03-04T00:20:43;102829.38;;;5.06;84.11
71970;BME280;59838;52.152;5.436;2023-03-04T00:23:09;102828.47;;;5.07;84.34
71970;BME280;59838;52.152;5.436;2023-03-04T00:25:36;102822.38;;;5.08;84.40
71970;BME280;59838;52.152;5.436;2023-03-04T00:28:03;102819.00;;;5.08;84.52
71970;BME280;59838;52.152;5.436;2023-03-04T00:30:30;102828.47;;;5.07;84.60
71970;BME280;59838;52.152;5.436;2023-03-04T00:32:56;102825.91;;;5.07;84.76
71970;BME280;59838;52.152;5.436;2023-03-04T00:35:22;102826.00;;;5.06;85.04
71970;BME280;59838;52.152;5.436;2023-03-04T00:37:49;102823.41;;;5.06;84.57
71970;BME280;59838;52.152;5.436;2023-03-04T00:40:16;102833.81;;;5.04;84.63
71970;BME280;59838;52.152;5.436;2023-03-04T00:42:42;102829.47;;;5.05;84.48
71970;BME280;59838;52.152;5.436;2023-03-04T00:45:09;102832.06;;;5.05;84.35
71970;BME280;59838;52.152;5.436;2023-03-04T00:47:36;102826.09;;;5.04;84.31
71970;BME280;59838;52.152;5.436;2023-03-04T00:50:02;102830.31;;;5.05;83.95
71970;BME280;59838;52.152;5.436;2023-03-04T00:52:29;102835.59;;;5.04;84.08
71970;BME280;59838;52.152;5.436;2023-03-04T00:54:55;102828.66;;;5.04;84.06
71970;BME280;59838;52.152;5.436;2023-03-04T00:57:22;102829.38;;;5.06;84.21
71970;BME280;59838;52.152;5.436;2023-03-04T00:59:48;102832.69;;;5.08;83.93
71970;BME280;59838;52.152;5.436;2023-03-04T01:02:15;102830.22;;;5.07;83.24
71970;BME280;59838;52.152;5.436;2023-03-04T01:04:41;102830.31;;;5.05;83.28
71970;BME280;59838;52.152;5.436;2023-03-04T01:07:08;102834.63;;;5.05;83.37
71970;BME280;59838;52.152;5.436;2023-03-04T01:09:34;102838.03;;;5.05;83.47
71970;BME280;59838;52.152;5.436;2023-03-04T01:12:01;102834.72;;;5.03;83.70
71970;BME280;59838;52.152;5.436;2023-03-04T01:14:28;102825.28;;;5.04;83.47
71970;BME280;59838;52.152;5.436;2023-03-04T01:16:54;102828.66;;;5.04;83.68
71970;BME280;59838;52.152;5.436;2023-03-04T01:19:21;102828.66;;;5.04;83.93
71970;BME280;59838;52.152;5.436;2023-03-04T01:21:47;102819.19;;;5.05;84.01
71970;BME280;59838;52.152;5.436;2023-03-04T01:24:14;102827.63;;;5.07;83.79
71970;BME280;59838;52.152;5.436;2023-03-04T01:26:41;102819.91;;;5.07;84.00
71970;BME280;59838;52.152;5.436;2023-03-04T01:29:08;102820.00;;;5.05;84.52
71970;BME280;59838;52.152;5.436;2023-03-04T01:31:34;102820.00;;;5.05;84.66
71970;BME280;59838;52.152;5.436;2023-03-04T01:34:01;102811.56;;;5.03;84.80
71970;BME280;59838;52.152;5.436;2023-03-04T01:36:27;102809.06;;;5.02;85.12
71970;BME280;59838;52.152;5.436;2023-03-04T01:38:55;102811.56;;;5.03;84.91
71970;BME280;59838;52.152;5.436;2023-03-04T01:41:24;102806.41;;;5.03;84.73
71970;BME280;59838;52.152;5.436;2023-03-04T01:43:57;102802.81;;;5.06;84.68
71970;BME280;59838;52.152;5.436;2023-03-04T01:46:24;102806.09;;;5.08;84.66
71970;BME280;59838;52.152;5.436;2023-03-04T01:48:50;102802.81;;;5.06;84.87
71970;BME280;59838;52.152;5.436;2023-03-04T01:51:19;102795.19;;;5.04;84.92
71970;BME280;59838;52.152;5.436;2023-03-04T01:53:47;102793.63;;;5.02;84.83
71970;BME280;59838;52.152;5.436;2023-03-04T01:56:23;102790.13;;;5.03;84.76
71970;BME280;59838;52.152;5.436;2023-03-04T01:59:18;102784.97;;;5.03;84.51
71970;BME280;59838;52.152;5.436;2023-03-04T02:01:50;102789.22;;;5.04;84.53
71970;BME280;59838;52.152;5.436;2023-03-04T02:04:20;102777.25;;;5.03;84.22
71970;BME280;59838;52.152;5.436;2023-03-04T02:06:47;102782.19;;;5.06;83.16
71970;BME280;59838;52.152;5.436;2023-03-04T02:09:15;102769.50;;;5.03;82.62
71970;BME280;59838;52.152;5.436;2023-03-04T02:11:42;102776.53;;;5.01;82.30
71970;BME280;59838;52.152;5.436;2023-03-04T02:14:11;102769.50;;;5.03;82.09
71970;BME280;59838;52.152;5.436;2023-03-04T02:16:38;102766.13;;;5.02;82.20
71970;BME280;59838;52.152;5.436;2023-03-04T02:19:08;102759.31;;;5.01;82.18
71970;BME280;59838;52.152;5.436;2023-03-04T02:21:38;102761.97;;;5.00;81.99
71970;BME280;59838;52.152;5.436;2023-03-04T02:24:26;102762.78;;;5.00;82.36
71970;BME280;59838;52.152;5.436;2023-03-04T02:26:54;102758.78;;;4.96;82.44
71970;BME280;59838;52.152;5.436;2023-03-04T02:29:21;102759.59;;;4.97;82.54
71970;BME280;59838;52.152;5.436;2023-03-04T02:31:50;102757.84;;;4.97;82.28
71970;BME280;59838;52.152;5.436;2023-03-04T02:34:29;102757.03;;;4.97;82.58
71970;BME280;59838;52.152;5.436;2023-03-04T02:36:57;102750.09;;;4.97;82.33
71970;BME280;59838;52.152;5.436;2023-03-04T02:39:34;102756.09;;;4.98;82.25
71970;BME280;59838;52.152;5.436;2023-03-04T02:42:02;102750.09;;;4.97;82.31
71970;BME280;59838;52.152;5.436;2023-03-04T02:44:31;102739.19;;;4.93;82.74
71970;BME280;59838;52.152;5.436;2023-03-04T02:46:58;102744.34;;;4.93;82.73
71970;BME280;59838;52.152;5.436;2023-03-04T02:49:27;102736.69;;;4.92;82.61
71970;BME280;59838;52.152;5.436;2023-03-04T02:52:26;102739.28;;;4.92;82.75
71970;BME280;59838;52.152;5.436;2023-03-04T02:54:52;102736.91;;;4.89;82.71
71970;BME280;59838;52.152;5.436;2023-03-04T02:57:18;102737.75;;;4.89;82.45
71970;BME280;59838;52.152;5.436;2023-03-04T02:59:45;102733.50;;;4.88;82.33
71970;BME280;59838;52.152;5.436;2023-03-04T03:02:11;102733.69;;;4.85;82.16
71970;BME280;59838;52.152;5.436;2023-03-04T03:04:38;102731.22;;;4.84;82.26
71970;BME280;59838;52.152;5.436;2023-03-04T03:07:06;102725.97;;;4.85;81.89
71970;BME280;59838;52.152;5.436;2023-03-04T03:09:33;102725.16;;;4.85;81.68
71970;BME280;59838;52.152;5.436;2023-03-04T03:11:59;102720.81;;;4.85;81.48
71970;BME280;59838;52.152;5.436;2023-03-04T03:14:26;102724.22;;;4.86;81.74
71970;BME280;59838;52.152;5.436;2023-03-04T03:16:52;102714.00;;;4.84;81.82
71970;BME280;59838;52.152;5.436;2023-03-04T03:19:19;102715.66;;;4.85;81.54
71970;BME280;59838;52.152;5.436;2023-03-04T03:21:45;102709.72;;;4.85;81.59
71970;BME280;59838;52.152;5.436;2023-03-04T03:24:12;102711.34;;;4.86;81.65
71970;BME280;59838;52.152;5.436;2023-03-04T03:26:38;102713.81;;;4.87;81.70
71970;BME280;59838;52.152;5.436;2023-03-04T03:29:05;102707.03;;;4.86;81.95
71970;BME280;59838;52.152;5.436;2023-03-04T03:31:31;102705.19;;;4.88;81.91
71970;BME280;59838;52.152;5.436;2023-03-04T03:33:58;102708.47;;;4.90;81.39
71970;BME280;59838;52.152;5.436;2023-03-04T03:36:24;102706.00;;;4.89;81.58
71970;BME280;59838;52.152;5.436;2023-03-04T03:38:51;102713.72;;;4.89;82.14
71970;BME280;59838;52.152;5.436;2023-03-04T03:41:17;102707.84;;;4.87;81.85
71970;BME280;59838;52.152;5.436;2023-03-04T03:43:44;102707.94;;;4.85;82.38
71970;BME280;59838;52.152;5.436;2023-03-04T03:46:10;102715.56;;;4.87;82.52
71970;BME280;59838;52.152;5.436;2023-03-04T03:48:37;102709.59;;;4.86;82.58
71970;BME280;59838;52.152;5.436;2023-03-04T03:51:03;102712.19;;;4.86;82.82
71970;BME280;59838;52.152;5.436;2023-03-04T03:53:30;102711.25;;;4.87;83.35
71970;BME280;59838;52.152;5.436;2023-03-04T03:55:56;102711.34;;;4.86;83.42
71970;BME280;59838;52.152;5.436;2023-03-04T03:58:24;102713.09;;;4.85;83.99
71970;BME280;59838;52.152;5.436;2023-03-04T04:00:52;102709.59;;;4.86;84.11
71970;BME280;59838;52.152;5.436;2023-03-04T04:03:21;102707.03;;;4.86;84.53
71970;BME280;59838;52.152;5.436;2023-03-04T04:05:47;102701.97;;;4.85;85.31
71970;BME280;59838;52.152;5.436;2023-03-04T04:08:15;102712.19;;;4.86;85.19
71970;BME280;59838;52.152;5.436;2023-03-04T04:10:43;102715.66;;;4.85;85.90
71970;BME280;59838;52.152;5.436;2023-03-04T04:13:10;102713.09;;;4.85;86.05
71970;BME280;59838;52.152;5.436;2023-03-04T04:15:38;102719.28;;;4.83;86.32
71970;BME280;59838;52.152;5.436;2023-03-04T04:18:05;102713.09;;;4.85;85.99
71970;BME280;59838;52.152;5.436;2023-03-04T04:20:32;102714.00;;;4.84;86.19
71970;BME280;59838;52.152;5.436;2023-03-04T04:22:58;102718.25;;;4.85;86.36
71970;BME280;59838;52.152;5.436;2023-03-04T04:25:25;102715.66;;;4.85;86.34
71970;BME280;59838;52.152;5.436;2023-03-04T04:27:51;102714.84;;;4.85;86.40
71970;BME280;59838;52.152;5.436;2023-03-04T04:30:18;102716.91;;;4.80;86.48
71970;BME280;59838;52.152;5.436;2023-03-04T04:32:44;102711.66;;;4.81;86.23
71970;BME280;59838;52.152;5.436;2023-03-04T04:35:11;102719.38;;;4.81;86.29
71970;BME280;59838;52.152;5.436;2023-03-04T04:37:37;102717.53;;;4.83;86.35
71970;BME280;59838;52.152;5.436;2023-03-04T04:40:04;102721.72;;;4.84;86.11
71970;BME280;59838;52.152;5.436;2023-03-04T04:42:31;102721.72;;;4.84;86.07
71970;BME280;59838;52.152;5.436;2023-03-04T04:44:57;102723.50;;;4.84;85.82
71970;BME280;59838;52.152;5.436;2023-03-04T04:47:24;102720.09;;;4.83;84.78
71970;BME280;59838;52.152;5.436;2023-03-04T04:49:50;102724.44;;;4.83;84.85
71970;BME280;59838;52.152;5.436;2023-03-04T04:52:17;102721.09;;;4.81;84.44
71970;BME280;59838;52.152;5.436;2023-03-04T04:54:43;102725.44;;;4.80;84.31
71970;BME280;59838;52.152;5.436;2023-03-04T04:57:10;102721.97;;;4.81;84.16
71970;BME280;59838;52.152;5.436;2023-03-04T04:59:36;102719.38;;;4.81;83.89
71970;BME280;59838;52.152;5.436;2023-03-04T05:02:03;102721.00;;;4.82;84.13
71970;BME280;59838;52.152;5.436;2023-03-04T05:04:29;102719.28;;;4.83;83.82
71970;BME280;59838;52.152;5.436;2023-03-04T05:06:56;102719.28;;;4.83;83.90
71970;BME280;59838;52.152;5.436;2023-03-04T05:09:22;102712.38;;;4.83;84.08
71970;BME280;59838;52.152;5.436;2023-03-04T05:11:49;102713.19;;;4.84;84.34
71970;BME280;59838;52.152;5.436;2023-03-04T05:14:15;102713.19;;;4.84;83.69
71970;BME280;59838;52.152;5.436;2023-03-04T05:16:42;102719.06;;;4.86;83.72
71970;BME280;59838;52.152;5.436;2023-03-04T05:19:08;102712.28;;;4.85;84.09
71970;BME280;59838;52.152;5.436;2023-03-04T05:21:35;102720.72;;;4.87;84.10
71970;BME280;59838;52.152;5.436;2023-03-04T05:24:01;102714.84;;;4.85;84.12
71970;BME280;59838;52.152;5.436;2023-03-04T05:26:28;102709.72;;;4.85;84.12
71970;BME280;59838;52.152;5.436;2023-03-04T05:28:54;102709.72;;;4.85;84.50
71970;BME280;59838;52.152;5.436;2023-03-04T05:31:20;102706.19;;;4.86;84.29
71970;BME280;59838;52.152;5.436;2023-03-04T05:33:47;102707.94;;;4.85;84.81
71970;BME280;59838;52.152;5.436;2023-03-04T05:36:13;102718.97;;;4.87;84.68
71970;BME280;59838;52.152;5.436;2023-03-04T05:38:40;102718.25;;;4.85;84.72
71970;BME280;59838;52.152;5.436;2023-03-04T05:41:06;102713.00;;;4.87;84.67
71970;BME280;59838;52.152;5.436;2023-03-04T05:43:33;102718.97;;;4.87;84.85
71970;BME280;59838;52.152;5.436;2023-03-04T05:46:02;102718.97;;;4.87;85.09
71970;BME280;59838;52.152;5.436;2023-03-04T05:48:29;102714.66;;;4.88;85.11
71970;BME280;59838;52.152;5.436;2023-03-04T05:50:57;102713.81;;;4.87;85.30
71970;BME280;59838;52.152;5.436;2023-03-04T05:53:24;102713.91;;;4.86;85.72
71970;BME280;59838;52.152;5.436;2023-03-04T05:55:51;102712.19;;;4.86;85.87
71970;BME280;59838;52.152;5.436;2023-03-04T05:58:18;102721.53;;;4.87;86.21
71970;BME280;59838;52.152;5.436;2023-03-04T06:00:46;102708.75;;;4.86;86.45
71970;BME280;59838;52.152;5.436;2023-03-04T06:03:14;102707.03;;;4.86;86.50
71970;BME280;59838;52.152;5.436;2023-03-04T06:05:41;102723.41;;;4.85;86.66
71970;BME280;59838;52.152;5.436;2023-03-04T06:08:09;102715.66;;;4.85;86.86
71970;BME280;59838;52.152;5.436;2023-03-04T06:10:36;102709.81;;;4.83;86.95
71970;BME280;59838;52.152;5.436;2023-03-04T06:13:03;102716.72;;;4.83;87.28
71970;BME280;59838;52.152;5.436;2023-03-04T06:15:29;102717.53;;;4.83;87.55
71970;BME280;59838;52.152;5.436;2023-03-04T06:17:56;102715.03;;;4.82;87.61
71970;BME280;59838;52.152;5.436;2023-03-04T06:20:23;102706.41;;;4.83;87.88
71970;BME280;59838;52.152;5.436;2023-03-04T06:22:49;102707.22;;;4.83;87.89
71970;BME280;59838;52.152;5.436;2023-03-04T06:25:16;102715.88;;;4.82;88.19
71970;BME280;59838;52.152;5.436;2023-03-04T06:27:42;102719.28;;;4.83;88.14
71970;BME280;59838;52.152;5.436;2023-03-04T06:30:09;102716.72;;;4.83;88.69
71970;BME280;59838;52.152;5.436;2023-03-04T06:32:36;102711.56;;;4.83;88.48
71970;BME280;59838;52.152;5.436;2023-03-04T06:35:03;102719.16;;;4.84;88.45
71970;BME280;59838;52.152;5.436;2023-03-04T06:37:29;102712.28;;;4.85;88.67
71970;BME280;59838;52.152;5.436;2023-03-04T06:39:56;102723.41;;;4.85;88.60
71970;BME280;59838;52.152;5.436;2023-03-04T06:42:23;102727.63;;;4.86;88.90
71970;BME280;59838;52.152;5.436;2023-03-04T06:44:49;102730.22;;;4.86;88.76
71970;BME280;59838;52.152;5.436;2023-03-04T06:47:16;102727.63;;;4.86;89.17
71970;BME280;59838;52.152;5.436;2023-03-04T06:49:43;102723.19;;;4.88;89.28
71970;BME280;59838;52.152;5.436;2023-03-04T06:52:10;102724.13;;;4.87;89.41
71970;BME280;59838;52.152;5.436;2023-03-04T06:54:38;102731.03;;;4.87;89.71
71970;BME280;59838;52.152;5.436;2023-03-04T06:57:06;102724.97;;;4.88;89.44
71970;BME280;59838;52.152;5.436;2023-03-04T06:59:33;102730.13;;;4.88;89.46
71970;BME280;59838;52.152;5.436;2023-03-04T07:01:59;102730.53;;;4.94;89.86
71970;BME280;59838;52.152;5.436;2023-03-04T07:04:26;102731.06;;;5.00;89.64
71970;BME280;59838;52.152;5.436;2023-03-04T07:06:53;102734.09;;;5.19;89.58
71970;BME280;59838;52.152;5.436;2023-03-04T07:09:19;102736.97;;;5.15;88.85
71970;BME280;59838;52.152;5.436;2023-03-04T07:11:46;102745.84;;;5.10;89.22
71970;BME280;59838;52.152;5.436;2023-03-04T07:14:12;102736.66;;;5.06;89.73
71970;BME280;59838;52.152;5.436;2023-03-04T07:16:39;102738.59;;;5.03;90.09
71970;BME280;59838;52.152;5.436;2023-03-04T07:19:05;102736.84;;;5.03;90.54
71970;BME280;59838;52.152;5.436;2023-03-04T07:21:32;102737.38;;;5.08;90.76
71970;BME280;59838;52.152;5.436;2023-03-04T07:23:58;102739.75;;;5.11;91.22
71970;BME280;59838;52.152;5.436;2023-03-04T07:26:25;102744.50;;;5.18;91.07
71970;BME280;59838;52.152;5.436;2023-03-04T07:28:51;102747.81;;;5.32;91.42
71970;BME280;59838;52.152;5.436;2023-03-04T07:31:25;102742.53;;;6.00;91.30
71970;BME280;59838;52.152;5.436;2023-03-04T07:33:56;102748.78;;;6.09;89.67
71970;BME280;59838;52.152;5.436;2023-03-04T07:36:23;102743.72;;;5.94;89.24
71970;BME280;59838;52.152;5.436;2023-03-04T07:38:51;102751.91;;;5.88;89.39
71970;BME280;59838;52.152;5.436;2023-03-04T07:41:21;102749.84;;;5.93;89.63
71970;BME280;59838;52.152;5.436;2023-03-04T07:43:48;102743.84;;;6.06;89.20
71970;BME280;59838;52.152;5.436;2023-03-04T07:46:15;102743.94;;;6.04;88.71
71970;BME280;59838;52.152;5.436;2023-03-04T07:48:42;102750.16;;;6.01;88.84
71970;BME280;59838;52.152;5.436;2023-03-04T07:51:21;102746.75;;;6.01;89.50
71970;BME280;59838;52.152;5.436;2023-03-04T07:53:50;102748.19;;;6.05;89.13
71970;BME280;59838;52.152;5.436;2023-03-04T07:56:20;102754.59;;;6.12;89.00
71970;BME280;59838;52.152;5.436;2023-03-04T07:58:47;102750.97;;;6.15;89.17
71970;BME280;59838;52.152;5.436;2023-03-04T08:01:17;102747.75;;;6.24;89.24
71970;BME280;59838;52.152;5.436;2023-03-04T08:03:43;102757.56;;;6.32;88.86
71970;BME280;59838;52.152;5.436;2023-03-04T08:06:13;102756.59;;;6.33;88.31
71970;BME280;59838;52.152;5.436;2023-03-04T08:08:40;102759.38;;;6.30;88.48
71970;BME280;59838;52.152;5.436;2023-03-04T08:11:12;102762.59;;;6.33;88.58
71970;BME280;59838;52.152;5.436;2023-03-04T08:13:39;102765.91;;;6.35;88.51
71970;BME280;59838;52.152;5.436;2023-03-04T08:16:06;102761.97;;;6.30;88.14
71970;BME280;59838;52.152;5.436;2023-03-04T08:18:33;102770.34;;;6.33;88.23
71970;BME280;59838;52.152;5.436;2023-03-04T08:20:59;102765.59;;;6.27;88.98
71970;BME280;59838;52.152;5.436;2023-03-04T08:23:26;102764.78;;;6.14;89.76
71970;BME280;59838;52.152;5.436;2023-03-04T08:25:52;102764.38;;;6.20;90.32
71970;BME280;59838;52.152;5.436;2023-03-04T08:28:19;102765.19;;;6.33;90.59
71970;BME280;59838;52.152;5.436;2023-03-04T08:30:52;102770.28;;;6.46;90.42
71970;BME280;59838;52.152;5.436;2023-03-04T08:33:19;102774.81;;;6.55;90.34
71970;BME280;59838;52.152;5.436;2023-03-04T08:35:45;102762.72;;;6.56;90.13
71970;BME280;59838;52.152;5.436;2023-03-04T08:38:12;102769.72;;;6.67;89.85
71970;BME280;59838;52.152;5.436;2023-03-04T08:40:38;102760.63;;;6.74;89.61
71970;BME280;59838;52.152;5.436;2023-03-04T08:43:05;102768.47;;;6.72;89.15
71970;BME280;59838;52.152;5.436;2023-03-04T08:45:31;102770.44;;;6.69;89.20
71970;BME280;59838;52.152;5.436;2023-03-04T08:47:58;102769.34;;;6.60;89.60
71970;BME280;59838;52.152;5.436;2023-03-04T08:50:24;102761.47;;;6.62;90.65
71970;BME280;59838;52.152;5.436;2023-03-04T08:52:52;102765.09;;;6.59;90.98
71970;BME280;59838;52.152;5.436;2023-03-04T08:55:19;102766.22;;;6.68;91.31
71970;BME280;59838;52.152;5.436;2023-03-04T08:57:46;102770.31;;;6.70;90.72
71970;BME280;59838;52.152;5.436;2023-03-04T09:00:12;102767.13;;;6.67;91.14
71970;BME280;59838;52.152;5.436;2023-03-04T09:02:39;102764.34;;;6.70;91.40
71970;BME280;59838;52.152;5.436;2023-03-04T09:05:06;102762.84;;;6.78;91.21
71970;BME280;59838;52.152;5.436;2023-03-04T09:07:33;102771.22;;;6.82;91.56
71970;BME280;59838;52.152;5.436;2023-03-04T09:09:59;102767.63;;;6.96;91.36
71970;BME280;59838;52.152;5.436;2023-03-04T09:12:25;102757.13;;;7.10;90.73
71970;BME280;59838;52.152;5.436;2023-03-04T09:14:52;102758.84;;;7.34;90.49
71970;BME280;59838;52.152;5.436;2023-03-04T09:17:35;102756.06;;;7.48;89.60
71970;BME280;59838;52.152;5.436;2023-03-04T09:20:02;102761.25;;;7.48;89.32
71970;BME280;59838;52.152;5.436;2023-03-04T09:22:30;102753.38;;;7.50;89.13
71970;BME280;59838;52.152;5.436;2023-03-04T09:24:56;102760.31;;;7.61;88.91
71970;BME280;59838;52.152;5.436;2023-03-04T09:27:23;102749.97;;;7.61;88.26
71970;BME280;59838;52.152;5.436;2023-03-04T09:29:49;102753.84;;;7.55;88.21
71970;BME280;59838;52.152;5.436;2023-03-04T09:32:16;102761.59;;;7.55;88.68
71970;BME280;59838;52.152;5.436;2023-03-04T09:34:43;102754.88;;;7.53;88.50
71970;BME280;59838;52.152;5.436;2023-03-04T09:37:09;102757.69;;;7.49;88.77
71970;BME280;59838;52.152;5.436;2023-03-04T09:39:36;102753.81;;;7.44;88.66
71970;BME280;59838;52.152;5.436;2023-03-04T09:42:03;102750.91;;;7.48;88.53
71970;BME280;59838;52.152;5.436;2023-03-04T09:44:33;102752.63;;;7.48;88.86
71970;BME280;59838;52.152;5.436;2023-03-04T09:47:05;102745.22;;;7.55;88.66
71970;BME280;59838;52.152;5.436;2023-03-04T09:49:33;102744.41;;;7.54;88.79
71970;BME280;59838;52.152;5.436;2023-03-04T09:54:53;102739.59;;;7.61;87.80
71970;BME280;59838;52.152;5.436;2023-03-04T09:57:33;102737.88;;;7.73;88.00
71970;BME280;59838;52.152;5.436;2023-03-04T10:00:16;102739.50;;;7.96;87.53
71970;BME280;59838;52.152;5.436;2023-03-04T10:05:20;102722.59;;;8.03;86.19
71970;BME280;59838;52.152;5.436;2023-03-04T10:07:55;102734.78;;;8.13;86.06
71970;BME280;59838;52.152;5.436;2023-03-04T10:10:38;102726.66;;;8.29;85.18
71970;BME280;59838;52.152;5.436;2023-03-04T10:13:12;102731.38;;;8.23;85.59
71970;BME280;59838;52.152;5.436;2023-03-04T10:15:42;102727.97;;;8.12;85.56
71970;BME280;59838;52.152;5.436;2023-03-04T10:20:51;102726.56;;;8.19;85.83
71970;BME280;59838;52.152;5.436;2023-03-04T10:23:25;102715.59;;;8.27;85.71
71970;BME280;59838;52.152;5.436;2023-03-04T10:25:52;102711.31;;;8.37;85.60
71970;BME280;59838;52.152;5.436;2023-03-04T10:28:28;102711.06;;;8.63;84.96
71970;BME280;59838;52.152;5.436;2023-03-04T10:33:34;102713.31;;;8.88;83.25
71970;BME280;59838;52.152;5.436;2023-03-04T10:38:54;102716.22;;;8.95;82.34
71970;BME280;59838;52.152;5.436;2023-03-04T10:41:25;102710.41;;;8.82;82.61
71970;BME280;59838;52.152;5.436;2023-03-04T10:44:02;102717.16;;;8.62;83.71
71970;BME280;59838;52.152;5.436;2023-03-04T10:46:30;102719.56;;;8.53;84.12
71970;BME280;59838;52.152;5.436;2023-03-04T10:48:57;102706.28;;;8.47;84.04
71970;BME280;59838;52.152;5.436;2023-03-04T10:51:28;102711.91;;;8.52;83.71
71970;BME280;59838;52.152;5.436;2023-03-04T10:54:04;102709.03;;;8.66;83.67
71970;BME280;59838;52.152;5.436;2023-03-04T10:56:38;102711.09;;;8.84;83.48
71970;BME280;59838;52.152;5.436;2023-03-04T10:59:45;102705.47;;;9.00;82.02
71970;BME280;59838;52.152;5.436;2023-03-04T11:02:29;102714.16;;;8.77;83.85
71970;BME280;59838;52.152;5.436;2023-03-04T11:07:48;102710.97;;;8.53;82.70
71970;BME280;59838;52.152;5.436;2023-03-04T11:10:42;102711.56;;;8.45;83.29
71970;BME280;59838;52.152;5.436;2023-03-04T11:13:24;102718.19;;;8.27;84.84
71970;BME280;59838;52.152;5.436;2023-03-04T11:18:46;102717.03;;;7.97;88.93
71970;BME280;59838;52.152;5.436;2023-03-04T11:21:18;102717.28;;;7.82;90.56
71970;BME280;59838;52.152;5.436;2023-03-04T11:23:55;102715.16;;;7.65;92.32
71970;BME280;59838;52.152;5.436;2023-03-04T11:26:27;102717.03;;;7.40;93.49
71970;BME280;59838;52.152;5.436;2023-03-04T11:31:39;102717.94;;;7.28;95.75
71970;BME280;59838;52.152;5.436;2023-03-04T11:34:41;102711.84;;;7.40;95.56
71970;BME280;59838;52.152;5.436;2023-03-04T11:37:23;102705.97;;;7.61;96.00
71970;BME280;59838;52.152;5.436;2023-03-04T11:40:03;102700.47;;;7.77;94.49
71970;BME280;59838;52.152;5.436;2023-03-04T11:42:50;102704.47;;;7.81;94.25
71970;BME280;59838;52.152;5.436;2023-03-04T11:45:26;102694.59;;;7.86;93.89
71970;BME280;59838;52.152;5.436;2023-03-04T11:50:50;102693.25;;;8.14;92.60
71970;BME280;59838;52.152;5.436;2023-03-04T11:56:15;102684.31;;;8.18;91.52
71970;BME280;59838;52.152;5.436;2023-03-04T11:58:57;102676.00;;;8.58;90.95
71970;BME280;59838;52.152;5.436;2023-03-04T12:04:15;102680.44;;;8.89;87.98
71970;BME280;59838;52.152;5.436;2023-03-04T12:15:33;102674.38;;;8.35;84.99
71970;BME280;59838;52.152;5.436;2023-03-04T12:24:17;102665.78;;;8.34;83.67
71970;BME280;59838;52.152;5.436;2023-03-04T12:35:40;102659.00;;;8.66;80.81
71970;BME280;59838;52.152;5.436;2023-03-04T12:38:24;102647.94;;;8.64;79.44
71970;BME280;59838;52.152;5.436;2023-03-04T12:43:53;102638.53;;;8.84;78.67
71970;BME280;59838;52.152;5.436;2023-03-04T12:46:36;102643.00;;;8.82;78.15
71970;BME280;59838;52.152;5.436;2023-03-04T12:57:11;102633.31;;;9.05;77.00
71970;BME280;59838;52.152;5.436;2023-03-04T12:59:43;102632.34;;;8.96;76.37
71970;BME280;59838;52.152;5.436;2023-03-04T13:02:46;102622.91;;;8.95;76.72
71970;BME280;59838;52.152;5.436;2023-03-04T13:05:35;102629.44;;;8.68;76.54
71970;BME280;59838;52.152;5.436;2023-03-04T13:18:58;102631.91;;;7.71;82.48
71970;BME280;59838;52.152;5.436;2023-03-04T13:21:29;102636.00;;;7.74;82.46
71970;BME280;59838;52.152;5.436;2023-03-04T13:23:57;102638.94;;;7.69;83.44
71970;BME280;59838;52.152;5.436;2023-03-04T13:26:33;102634.50;;;7.71;83.86
71970;BME280;59838;52.152;5.436;2023-03-04T13:32:08;102625.78;;;7.49;85.13
71970;BME280;59838;52.152;5.436;2023-03-04T13:34:50;102628.38;;;7.49;86.20
71970;BME280;59838;52.152;5.436;2023-03-04T13:37:32;102624.53;;;7.44;85.98
71970;BME280;59838;52.152;5.436;2023-03-04T13:42:52;102613.53;;;7.85;85.06
71970;BME280;59838;52.152;5.436;2023-03-04T13:45:36;102613.69;;;7.84;83.15
71970;BME280;59838;52.152;5.436;2023-03-04T13:48:07;102617.03;;;8.07;82.17
71970;BME280;59838;52.152;5.436;2023-03-04T13:50:49;102612.66;;;8.08;80.83
71970;BME280;59838;52.152;5.436;2023-03-04T13:56:23;102605.72;;;8.08;79.57
71970;BME280;59838;52.152;5.436;2023-03-04T13:59:03;102613.78;;;7.82;80.01
71970;BME280;59838;52.152;5.436;2023-03-04T14:01:32;102602.16;;;7.77;79.23
71970;BME280;59838;52.152;5.436;2023-03-04T14:04:10;102603.47;;;7.71;79.38
71970;BME280;59838;52.152;5.436;2023-03-04T14:06:42;102600.38;;;7.77;78.57
71970;BME280;59838;52.152;5.436;2023-03-04T14:09:19;102598.28;;;7.82;77.17
71970;BME280;59838;52.152;5.436;2023-03-04T14:11:47;102603.56;;;7.81;75.32
71970;BME280;59838;52.152;5.436;2023-03-04T14:14:26;102594.16;;;7.80;75.23
71970;BME280;59838;52.152;5.436;2023-03-04T14:16:57;102595.69;;;7.82;75.12
71970;BME280;59838;52.152;5.436;2023-03-04T14:19:32;102594.03;;;7.70;74.85
71970;BME280;59838;52.152;5.436;2023-03-04T14:22:26;102599.22;;;7.59;74.78
71970;BME280;59838;52.152;5.436;2023-03-04T14:27:29;102600.16;;;7.69;74.36
71970;BME280;59838;52.152;5.436;2023-03-04T14:30:00;102598.53;;;7.68;73.92
71970;BME280;59838;52.152;5.436;2023-03-04T14:32:28;102590.75;;;7.68;73.49
71970;BME280;59838;52.152;5.436;2023-03-04T14:35:03;102582.03;;;7.69;73.28
71970;BME280;59838;52.152;5.436;2023-03-04T14:37:37;102580.19;;;7.71;72.57
71970;BME280;59838;52.152;5.436;2023-03-04T14:40:39;102581.00;;;7.72;72.69